sensor_id;sensor_type;location;lat;lon;timestamp;P1;durP1;ratioP1;P2;durP2;ratioP2
72132;SDS011;60008;50.826;6.896;2022-09-03T00:01:50;2.75;;;1.60;;
72132;SDS011;60008;50.826;6.896;2022-09-03T00:04:25;4.10;;;1.83;;
72132;SDS011;60008;50.826;6.896;2022-09-03T00:07:02;2.40;;;1.40;;
72132;SDS011;60008;50.826;6.896;2022-09-03T00:09:35;5.50;;;1.50;;
72132;SDS011;60008;50.826;6.896;2022-09-03T00:12:12;2.63;;;1.38;;
72132;SDS011;60008;50.826;6.896;2022-09-03T00:14:50;3.80;;;1.60;;
72132;SDS011;60008;50.826;6.896;2022-09-03T00:17:24;2.90;;;1.40;;
72132;SDS011;60008;50.826;6.896;2022-09-03T00:20:06;3.88;;;1.38;;
72132;SDS011;60008;50.826;6.896;2022-09-03T00:22:36;3.55;;;1.73;;
72132;SDS011;60008;50.826;6.896;2022-09-03T00:25:11;3.53;;;1.60;;
72132;SDS011;60008;50.826;6.896;2022-09-03T00:27:43;5.38;;;1.90;;
72132;SDS011;60008;50.826;6.896;2022-09-03T00:30:16;3.67;;;1.80;;
72132;SDS011;60008;50.826;6.896;2022-09-03T00:33:03;3.92;;;1.60;;
72132;SDS011;60008;50.826;6.896;2022-09-03T00:35:43;3.60;;;1.50;;
72132;SDS011;60008;50.826;6.896;2022-09-03T00:38:13;2.80;;;1.40;;
72132;SDS011;60008;50.826;6.896;2022-09-03T00:46:27;3.33;;;1.70;;
72132;SDS011;60008;50.826;6.896;2022-09-03T01:00:22;5.55;;;1.33;;
72132;SDS011;60008;50.826;6.896;2022-09-03T01:02:51;3.85;;;1.63;;
72132;SDS011;60008;50.826;6.896;2022-09-03T01:13:40;2.90;;;1.35;;
72132;SDS011;60008;50.826;6.896;2022-09-03T01:21:55;4.53;;;1.42;;
72132;SDS011;60008;50.826;6.896;2022-09-03T01:27:31;3.85;;;1.02;;
72132;SDS011;60008;50.826;6.896;2022-09-03T01:30:04;4.68;;;1.00;;
72132;SDS011;60008;50.826;6.896;2022-09-03T01:47:03;1.88;;;1.08;;
72132;SDS011;60008;50.826;6.896;2022-09-03T01:49:44;2.30;;;1.20;;
72132;SDS011;60008;50.826;6.896;2022-09-03T01:52:23;3.00;;;1.20;;
72132;SDS011;60008;50.826;6.896;2022-09-03T01:55:09;4.68;;;1.20;;
72132;SDS011;60008;50.826;6.896;2022-09-03T01:57:57;3.45;;;1.25;;
72132;SDS011;60008;50.826;6.896;2022-09-03T02:00:26;2.42;;;1.17;;
72132;SDS011;60008;50.826;6.896;2022-09-03T02:02:55;3.47;;;1.30;;
72132;SDS011;60008;50.826;6.896;2022-09-03T02:05:30;2.83;;;1.30;;
72132;SDS011;60008;50.826;6.896;2022-09-03T02:08:01;2.65;;;1.23;;
72132;SDS011;60008;50.826;6.896;2022-09-03T02:16:02;2.15;;;1.20;;
72132;SDS011;60008;50.826;6.896;2022-09-03T02:18:36;5.37;;;1.30;;
72132;SDS011;60008;50.826;6.896;2022-09-03T02:21:08;3.10;;;1.10;;
72132;SDS011;60008;50.826;6.896;2022-09-03T02:23:37;5.10;;;0.90;;
72132;SDS011;60008;50.826;6.896;2022-09-03T02:26:05;2.83;;;1.17;;
72132;SDS011;60008;50.826;6.896;2022-09-03T02:28:34;3.03;;;1.30;;
72132;SDS011;60008;50.826;6.896;2022-09-03T02:31:00;3.70;;;1.20;;
72132;SDS011;60008;50.826;6.896;2022-09-03T02:33:28;4.30;;;1.00;;
72132;SDS011;60008;50.826;6.896;2022-09-03T02:35:56;2.10;;;1.15;;
72132;SDS011;60008;50.826;6.896;2022-09-03T02:38:23;2.80;;;1.10;;
72132;SDS011;60008;50.826;6.896;2022-09-03T02:40:51;4.20;;;1.30;;
72132;SDS011;60008;50.826;6.896;2022-09-03T02:43:40;2.40;;;1.10;;
72132;SDS011;60008;50.826;6.896;2022-09-03T02:46:14;2.97;;;1.15;;
72132;SDS011;60008;50.826;6.896;2022-09-03T02:48:46;2.53;;;1.20;;
72132;SDS011;60008;50.826;6.896;2022-09-03T02:51:13;4.05;;;1.55;;
72132;SDS011;60008;50.826;6.896;2022-09-03T02:53:40;2.10;;;1.20;;
72132;SDS011;60008;50.826;6.896;2022-09-03T02:56:08;2.67;;;1.00;;
72132;SDS011;60008;50.826;6.896;2022-09-03T02:58:34;2.13;;;1.10;;
72132;SDS011;60008;50.826;6.896;2022-09-03T03:01:01;2.03;;;0.90;;
72132;SDS011;60008;50.826;6.896;2022-09-03T03:03:29;2.95;;;1.10;;
72132;SDS011;60008;50.826;6.896;2022-09-03T03:05:57;3.17;;;1.00;;
72132;SDS011;60008;50.826;6.896;2022-09-03T03:08:27;5.00;;;1.00;;
72132;SDS011;60008;50.826;6.896;2022-09-03T03:10:56;4.03;;;1.00;;
72132;SDS011;60008;50.826;6.896;2022-09-03T03:13:25;2.70;;;1.00;;
72132;SDS011;60008;50.826;6.896;2022-09-03T03:15:59;2.00;;;1.10;;
72132;SDS011;60008;50.826;6.896;2022-09-03T03:18:27;1.60;;;0.90;;
72132;SDS011;60008;50.826;6.896;2022-09-03T03:20:54;3.20;;;0.90;;
72132;SDS011;60008;50.826;6.896;2022-09-03T03:23:21;2.65;;;1.20;;
72132;SDS011;60008;50.826;6.896;2022-09-03T03:25:47;2.65;;;1.00;;
72132;SDS011;60008;50.826;6.896;2022-09-03T03:28:14;1.83;;;1.00;;
72132;SDS011;60008;50.826;6.896;2022-09-03T03:30:41;2.10;;;1.10;;
72132;SDS011;60008;50.826;6.896;2022-09-03T03:33:08;3.33;;;1.17;;
72132;SDS011;60008;50.826;6.896;2022-09-03T03:35:35;1.52;;;0.80;;
72132;SDS011;60008;50.826;6.896;2022-09-03T03:38:02;1.73;;;0.93;;
72132;SDS011;60008;50.826;6.896;2022-09-03T03:40:29;2.38;;;1.10;;
72132;SDS011;60008;50.826;6.896;2022-09-03T03:42:56;1.95;;;1.05;;
72132;SDS011;60008;50.826;6.896;2022-09-03T03:45:24;2.13;;;1.20;;
72132;SDS011;60008;50.826;6.896;2022-09-03T03:47:50;3.60;;;1.10;;
72132;SDS011;60008;50.826;6.896;2022-09-03T03:50:17;2.55;;;1.00;;
72132;SDS011;60008;50.826;6.896;2022-09-03T03:52:44;3.45;;;1.10;;
72132;SDS011;60008;50.826;6.896;2022-09-03T03:55:11;2.35;;;1.13;;
72132;SDS011;60008;50.826;6.896;2022-09-03T03:57:41;1.97;;;1.03;;
72132;SDS011;60008;50.826;6.896;2022-09-03T04:00:07;2.13;;;1.00;;
72132;SDS011;60008;50.826;6.896;2022-09-03T04:02:35;2.80;;;1.15;;
72132;SDS011;60008;50.826;6.896;2022-09-03T04:05:04;3.03;;;1.15;;
72132;SDS011;60008;50.826;6.896;2022-09-03T04:07:32;2.65;;;1.05;;
72132;SDS011;60008;50.826;6.896;2022-09-03T04:09:59;2.73;;;1.07;;
72132;SDS011;60008;50.826;6.896;2022-09-03T04:12:26;3.30;;;0.95;;
72132;SDS011;60008;50.826;6.896;2022-09-03T04:14:53;2.25;;;1.00;;
72132;SDS011;60008;50.826;6.896;2022-09-03T04:17:19;2.88;;;1.02;;
72132;SDS011;60008;50.826;6.896;2022-09-03T04:19:50;1.80;;;0.90;;
72132;SDS011;60008;50.826;6.896;2022-09-03T04:22:17;2.20;;;1.10;;
72132;SDS011;60008;50.826;6.896;2022-09-03T04:24:44;2.20;;;1.13;;
72132;SDS011;60008;50.826;6.896;2022-09-03T04:27:11;2.25;;;1.00;;
72132;SDS011;60008;50.826;6.896;2022-09-03T04:29:37;2.10;;;1.20;;
72132;SDS011;60008;50.826;6.896;2022-09-03T04:32:07;2.40;;;1.00;;
72132;SDS011;60008;50.826;6.896;2022-09-03T04:34:52;1.93;;;1.10;;
72132;SDS011;60008;50.826;6.896;2022-09-03T04:37:18;2.08;;;0.90;;
72132;SDS011;60008;50.826;6.896;2022-09-03T04:39:45;2.45;;;1.20;;
72132;SDS011;60008;50.826;6.896;2022-09-03T04:42:12;3.15;;;1.10;;
72132;SDS011;60008;50.826;6.896;2022-09-03T04:44:39;4.13;;;1.27;;
72132;SDS011;60008;50.826;6.896;2022-09-03T04:47:06;4.13;;;1.00;;
72132;SDS011;60008;50.826;6.896;2022-09-03T04:49:33;1.85;;;1.00;;
72132;SDS011;60008;50.826;6.896;2022-09-03T04:52:00;2.15;;;1.10;;
72132;SDS011;60008;50.826;6.896;2022-09-03T04:54:27;2.28;;;1.23;;
72132;SDS011;60008;50.826;6.896;2022-09-03T04:56:55;2.60;;;1.20;;
72132;SDS011;60008;50.826;6.896;2022-09-03T04:59:21;2.47;;;1.17;;
72132;SDS011;60008;50.826;6.896;2022-09-03T05:01:48;4.57;;;1.30;;
72132;SDS011;60008;50.826;6.896;2022-09-03T05:04:15;3.70;;;1.27;;
72132;SDS011;60008;50.826;6.896;2022-09-03T05:06:41;1.75;;;1.00;;
72132;SDS011;60008;50.826;6.896;2022-09-03T05:09:08;1.63;;;1.00;;
72132;SDS011;60008;50.826;6.896;2022-09-03T05:11:35;2.43;;;1.17;;
72132;SDS011;60008;50.826;6.896;2022-09-03T05:14:02;4.07;;;1.25;;
72132;SDS011;60008;50.826;6.896;2022-09-03T05:16:30;3.15;;;1.30;;
72132;SDS011;60008;50.826;6.896;2022-09-03T05:18:58;7.68;;;1.25;;
72132;SDS011;60008;50.826;6.896;2022-09-03T05:21:26;2.85;;;1.27;;
72132;SDS011;60008;50.826;6.896;2022-09-03T05:23:53;3.10;;;1.30;;
72132;SDS011;60008;50.826;6.896;2022-09-03T05:26:25;2.90;;;1.33;;
72132;SDS011;60008;50.826;6.896;2022-09-03T05:28:53;7.13;;;1.77;;
72132;SDS011;60008;50.826;6.896;2022-09-03T05:31:22;2.90;;;1.40;;
72132;SDS011;60008;50.826;6.896;2022-09-03T05:33:52;2.60;;;1.20;;
72132;SDS011;60008;50.826;6.896;2022-09-03T05:36:23;5.93;;;1.33;;
72132;SDS011;60008;50.826;6.896;2022-09-03T05:38:51;3.28;;;1.30;;
72132;SDS011;60008;50.826;6.896;2022-09-03T05:41:23;4.13;;;1.17;;
72132;SDS011;60008;50.826;6.896;2022-09-03T05:43:51;4.70;;;1.30;;
72132;SDS011;60008;50.826;6.896;2022-09-03T05:46:25;1.88;;;1.00;;
72132;SDS011;60008;50.826;6.896;2022-09-03T05:48:58;2.63;;;0.97;;
72132;SDS011;60008;50.826;6.896;2022-09-03T05:51:26;4.28;;;1.17;;
72132;SDS011;60008;50.826;6.896;2022-09-03T05:53:53;3.58;;;1.10;;
72132;SDS011;60008;50.826;6.896;2022-09-03T05:56:21;6.28;;;1.40;;
72132;SDS011;60008;50.826;6.896;2022-09-03T05:58:50;2.40;;;1.30;;
72132;SDS011;60008;50.826;6.896;2022-09-03T06:01:20;5.60;;;1.10;;
72132;SDS011;60008;50.826;6.896;2022-09-03T06:06:25;1.90;;;0.95;;
72132;SDS011;60008;50.826;6.896;2022-09-03T06:08:53;2.85;;;1.20;;
72132;SDS011;60008;50.826;6.896;2022-09-03T06:11:21;5.07;;;1.20;;
72132;SDS011;60008;50.826;6.896;2022-09-03T06:13:55;4.00;;;1.17;;
72132;SDS011;60008;50.826;6.896;2022-09-03T06:16:23;2.70;;;1.23;;
72132;SDS011;60008;50.826;6.896;2022-09-03T06:18:59;2.75;;;1.10;;
72132;SDS011;60008;50.826;6.896;2022-09-03T06:21:26;2.47;;;1.00;;
72132;SDS011;60008;50.826;6.896;2022-09-03T06:23:54;2.90;;;1.30;;
72132;SDS011;60008;50.826;6.896;2022-09-03T06:26:25;5.30;;;1.20;;
72132;SDS011;60008;50.826;6.896;2022-09-03T06:28:54;3.90;;;1.17;;
72132;SDS011;60008;50.826;6.896;2022-09-03T06:31:22;4.78;;;1.27;;
72132;SDS011;60008;50.826;6.896;2022-09-03T06:33:49;6.32;;;1.70;;
72132;SDS011;60008;50.826;6.896;2022-09-03T06:36:18;5.60;;;1.95;;
72132;SDS011;60008;50.826;6.896;2022-09-03T06:38:46;1.97;;;1.10;;
72132;SDS011;60008;50.826;6.896;2022-09-03T06:41:13;3.30;;;1.50;;
72132;SDS011;60008;50.826;6.896;2022-09-03T06:43:46;7.30;;;3.95;;
72132;SDS011;60008;50.826;6.896;2022-09-03T06:46:15;6.05;;;2.08;;
72132;SDS011;60008;50.826;6.896;2022-09-03T06:48:43;2.92;;;1.73;;
72132;SDS011;60008;50.826;6.896;2022-09-03T06:51:14;2.30;;;1.17;;
72132;SDS011;60008;50.826;6.896;2022-09-03T06:53:52;4.18;;;1.48;;
72132;SDS011;60008;50.826;6.896;2022-09-03T06:56:22;4.45;;;1.65;;
72132;SDS011;60008;50.826;6.896;2022-09-03T06:58:56;3.22;;;1.40;;
72132;SDS011;60008;50.826;6.896;2022-09-03T07:01:27;4.00;;;1.02;;
72132;SDS011;60008;50.826;6.896;2022-09-03T07:04:00;3.50;;;0.97;;
72132;SDS011;60008;50.826;6.896;2022-09-03T07:06:33;4.15;;;1.85;;
72132;SDS011;60008;50.826;6.896;2022-09-03T07:09:05;4.40;;;1.65;;
72132;SDS011;60008;50.826;6.896;2022-09-03T07:11:33;2.28;;;1.00;;
72132;SDS011;60008;50.826;6.896;2022-09-03T07:14:02;2.00;;;1.00;;
72132;SDS011;60008;50.826;6.896;2022-09-03T07:16:32;4.10;;;1.20;;
72132;SDS011;60008;50.826;6.896;2022-09-03T07:19:00;2.60;;;1.13;;
72132;SDS011;60008;50.826;6.896;2022-09-03T07:21:29;1.77;;;0.98;;
72132;SDS011;60008;50.826;6.896;2022-09-03T07:23:59;2.72;;;1.08;;
72132;SDS011;60008;50.826;6.896;2022-09-03T07:26:26;1.92;;;1.02;;
72132;SDS011;60008;50.826;6.896;2022-09-03T07:28:57;3.40;;;1.00;;
72132;SDS011;60008;50.826;6.896;2022-09-03T07:33:58;2.42;;;1.13;;
72132;SDS011;60008;50.826;6.896;2022-09-03T07:36:26;1.75;;;1.00;;
72132;SDS011;60008;50.826;6.896;2022-09-03T07:39:00;1.83;;;0.90;;
72132;SDS011;60008;50.826;6.896;2022-09-03T07:41:27;2.17;;;1.07;;
72132;SDS011;60008;50.826;6.896;2022-09-03T07:43:54;1.88;;;0.93;;
72132;SDS011;60008;50.826;6.896;2022-09-03T07:46:23;2.05;;;1.00;;
72132;SDS011;60008;50.826;6.896;2022-09-03T07:48:51;1.52;;;0.88;;
72132;SDS011;60008;50.826;6.896;2022-09-03T07:51:20;2.65;;;1.10;;
72132;SDS011;60008;50.826;6.896;2022-09-03T07:53:56;3.43;;;1.20;;
72132;SDS011;60008;50.826;6.896;2022-09-03T07:56:24;1.70;;;1.00;;
72132;SDS011;60008;50.826;6.896;2022-09-03T07:58:52;2.92;;;1.20;;
72132;SDS011;60008;50.826;6.896;2022-09-03T08:01:22;4.63;;;1.17;;
72132;SDS011;60008;50.826;6.896;2022-09-03T08:03:51;3.30;;;1.33;;
72132;SDS011;60008;50.826;6.896;2022-09-03T08:06:19;8.20;;;1.33;;
72132;SDS011;60008;50.826;6.896;2022-09-03T08:08:48;2.45;;;1.10;;
72132;SDS011;60008;50.826;6.896;2022-09-03T08:11:18;3.30;;;1.02;;
72132;SDS011;60008;50.826;6.896;2022-09-03T08:13:47;3.40;;;1.10;;
72132;SDS011;60008;50.826;6.896;2022-09-03T08:16:19;5.80;;;1.10;;
72132;SDS011;60008;50.826;6.896;2022-09-03T08:18:46;3.77;;;1.10;;
72132;SDS011;60008;50.826;6.896;2022-09-03T08:21:13;3.80;;;1.27;;
72132;SDS011;60008;50.826;6.896;2022-09-03T08:23:42;2.00;;;1.10;;
72132;SDS011;60008;50.826;6.896;2022-09-03T08:26:11;4.22;;;1.30;;
72132;SDS011;60008;50.826;6.896;2022-09-03T08:28:38;2.97;;;1.30;;
72132;SDS011;60008;50.826;6.896;2022-09-03T08:31:13;2.37;;;1.10;;
72132;SDS011;60008;50.826;6.896;2022-09-03T08:33:42;3.00;;;1.30;;
72132;SDS011;60008;50.826;6.896;2022-09-03T08:36:15;2.17;;;1.40;;
72132;SDS011;60008;50.826;6.896;2022-09-03T08:38:43;5.45;;;1.40;;
72132;SDS011;60008;50.826;6.896;2022-09-03T08:46:48;3.42;;;1.20;;
72132;SDS011;60008;50.826;6.896;2022-09-03T08:52:57;2.13;;;1.20;;
72132;SDS011;60008;50.826;6.896;2022-09-03T08:55:18;2.78;;;1.48;;
72132;SDS011;60008;50.826;6.896;2022-09-03T08:58:14;2.47;;;1.20;;
72132;SDS011;60008;50.826;6.896;2022-09-03T09:00:57;2.78;;;1.40;;
72132;SDS011;60008;50.826;6.896;2022-09-03T09:11:45;2.40;;;1.30;;
72132;SDS011;60008;50.826;6.896;2022-09-03T09:14:26;2.45;;;1.42;;
72132;SDS011;60008;50.826;6.896;2022-09-03T09:19:57;2.65;;;1.38;;
72132;SDS011;60008;50.826;6.896;2022-09-03T09:22:34;3.60;;;1.52;;
72132;SDS011;60008;50.826;6.896;2022-09-03T09:25:12;8.90;;;1.80;;
72132;SDS011;60008;50.826;6.896;2022-09-03T09:28:01;2.88;;;1.50;;
72132;SDS011;60008;50.826;6.896;2022-09-03T09:30:30;5.18;;;1.67;;
72132;SDS011;60008;50.826;6.896;2022-09-03T09:32:58;6.68;;;1.60;;
72132;SDS011;60008;50.826;6.896;2022-09-03T09:35:25;5.43;;;1.63;;
72132;SDS011;60008;50.826;6.896;2022-09-03T09:37:53;2.10;;;1.30;;
72132;SDS011;60008;50.826;6.896;2022-09-03T09:40:23;3.78;;;1.58;;
72132;SDS011;60008;50.826;6.896;2022-09-03T09:43:03;3.85;;;1.90;;
72132;SDS011;60008;50.826;6.896;2022-09-03T09:45:36;2.90;;;1.63;;
72132;SDS011;60008;50.826;6.896;2022-09-03T09:48:12;3.95;;;1.50;;
72132;SDS011;60008;50.826;6.896;2022-09-03T09:50:43;3.37;;;1.80;;
72132;SDS011;60008;50.826;6.896;2022-09-03T09:53:10;3.22;;;1.88;;
72132;SDS011;60008;50.826;6.896;2022-09-03T09:55:48;3.28;;;1.80;;
72132;SDS011;60008;50.826;6.896;2022-09-03T09:58:21;7.25;;;1.90;;
72132;SDS011;60008;50.826;6.896;2022-09-03T10:00:54;3.55;;;1.77;;
72132;SDS011;60008;50.826;6.896;2022-09-03T10:03:25;2.83;;;1.90;;
72132;SDS011;60008;50.826;6.896;2022-09-03T10:06:26;3.30;;;1.92;;
72132;SDS011;60008;50.826;6.896;2022-09-03T10:09:11;2.60;;;1.70;;
72132;SDS011;60008;50.826;6.896;2022-09-03T10:11:48;3.45;;;1.60;;
72132;SDS011;60008;50.826;6.896;2022-09-03T10:14:33;3.65;;;1.73;;
72132;SDS011;60008;50.826;6.896;2022-09-03T10:17:27;6.03;;;1.60;;
72132;SDS011;60008;50.826;6.896;2022-09-03T10:23:05;2.70;;;1.83;;
72132;SDS011;60008;50.826;6.896;2022-09-03T10:25:42;4.25;;;2.08;;
72132;SDS011;60008;50.826;6.896;2022-09-03T10:28:20;3.00;;;2.05;;
72132;SDS011;60008;50.826;6.896;2022-09-03T10:39:47;3.55;;;1.80;;
72132;SDS011;60008;50.826;6.896;2022-09-03T10:42:43;2.70;;;1.67;;
72132;SDS011;60008;50.826;6.896;2022-09-03T10:45:16;2.90;;;1.70;;
72132;SDS011;60008;50.826;6.896;2022-09-03T11:07:04;3.55;;;2.00;;
72132;SDS011;60008;50.826;6.896;2022-09-03T11:09:36;3.58;;;2.00;;
72132;SDS011;60008;50.826;6.896;2022-09-03T11:12:08;6.25;;;1.92;;
72132;SDS011;60008;50.826;6.896;2022-09-03T11:17:41;3.72;;;1.90;;
72132;SDS011;60008;50.826;6.896;2022-09-03T11:22:47;4.43;;;2.10;;
72132;SDS011;60008;50.826;6.896;2022-09-03T11:25:21;5.00;;;2.20;;
72132;SDS011;60008;50.826;6.896;2022-09-03T11:33:40;2.67;;;1.75;;
72132;SDS011;60008;50.826;6.896;2022-09-03T11:36:19;3.83;;;2.38;;
72132;SDS011;60008;50.826;6.896;2022-09-03T11:38:51;3.60;;;2.13;;
72132;SDS011;60008;50.826;6.896;2022-09-03T11:43:47;3.95;;;1.90;;
72132;SDS011;60008;50.826;6.896;2022-09-03T11:48:48;4.72;;;1.90;;
72132;SDS011;60008;50.826;6.896;2022-09-03T11:54:10;3.10;;;2.00;;
72132;SDS011;60008;50.826;6.896;2022-09-03T11:57:02;3.17;;;2.13;;
72132;SDS011;60008;50.826;6.896;2022-09-03T11:59:35;3.25;;;2.00;;
72132;SDS011;60008;50.826;6.896;2022-09-03T12:02:49;4.97;;;2.30;;
72132;SDS011;60008;50.826;6.896;2022-09-03T12:07:48;4.00;;;2.20;;
72132;SDS011;60008;50.826;6.896;2022-09-03T12:22:14;4.27;;;2.30;;
72132;SDS011;60008;50.826;6.896;2022-09-03T12:24:42;35.67;;;3.17;;
72132;SDS011;60008;50.826;6.896;2022-09-03T12:27:15;4.78;;;2.05;;
72132;SDS011;60008;50.826;6.896;2022-09-03T12:29:59;5.72;;;2.10;;
72132;SDS011;60008;50.826;6.896;2022-09-03T12:32:28;13.82;;;2.65;;
72132;SDS011;60008;50.826;6.896;2022-09-03T12:35:08;7.10;;;2.40;;
72132;SDS011;60008;50.826;6.896;2022-09-03T12:37:36;5.88;;;2.20;;
72132;SDS011;60008;50.826;6.896;2022-09-03T12:40:27;4.78;;;2.20;;
72132;SDS011;60008;50.826;6.896;2022-09-03T12:43:10;3.25;;;2.00;;
72132;SDS011;60008;50.826;6.896;2022-09-03T12:45:58;4.00;;;2.10;;
72132;SDS011;60008;50.826;6.896;2022-09-03T12:51:48;3.63;;;2.60;;
72132;SDS011;60008;50.826;6.896;2022-09-03T12:54:21;4.78;;;2.45;;
72132;SDS011;60008;50.826;6.896;2022-09-03T12:56:51;4.65;;;2.25;;
72132;SDS011;60008;50.826;6.896;2022-09-03T12:59:22;4.22;;;2.47;;
72132;SDS011;60008;50.826;6.896;2022-09-03T13:01:54;6.40;;;2.30;;
72132;SDS011;60008;50.826;6.896;2022-09-03T13:04:27;3.30;;;2.42;;
72132;SDS011;60008;50.826;6.896;2022-09-03T13:07:01;4.38;;;2.42;;
72132;SDS011;60008;50.826;6.896;2022-09-03T13:09:38;3.45;;;1.98;;
72132;SDS011;60008;50.826;6.896;2022-09-03T13:12:06;3.80;;;2.25;;
72132;SDS011;60008;50.826;6.896;2022-09-03T13:14:47;7.40;;;2.50;;
72132;SDS011;60008;50.826;6.896;2022-09-03T13:17:29;5.03;;;2.30;;
72132;SDS011;60008;50.826;6.896;2022-09-03T13:25:32;3.92;;;2.28;;
72132;SDS011;60008;50.826;6.896;2022-09-03T13:36:04;4.72;;;2.38;;
72132;SDS011;60008;50.826;6.896;2022-09-03T13:38:50;4.90;;;2.65;;
72132;SDS011;60008;50.826;6.896;2022-09-03T13:44:07;3.50;;;2.30;;
72132;SDS011;60008;50.826;6.896;2022-09-03T13:46:42;5.15;;;3.58;;
72132;SDS011;60008;50.826;6.896;2022-09-03T13:52:02;3.78;;;2.47;;
72132;SDS011;60008;50.826;6.896;2022-09-03T13:54:35;3.80;;;2.00;;
72132;SDS011;60008;50.826;6.896;2022-09-03T14:00:06;4.78;;;2.42;;
72132;SDS011;60008;50.826;6.896;2022-09-03T14:05:18;6.03;;;3.00;;
72132;SDS011;60008;50.826;6.896;2022-09-03T14:13:27;6.03;;;2.10;;
72132;SDS011;60008;50.826;6.896;2022-09-03T14:18:55;3.55;;;2.35;;
72132;SDS011;60008;50.826;6.896;2022-09-03T14:21:28;3.90;;;1.83;;
72132;SDS011;60008;50.826;6.896;2022-09-03T14:26:48;3.10;;;2.00;;
72132;SDS011;60008;50.826;6.896;2022-09-03T14:29:17;4.55;;;2.08;;
72132;SDS011;60008;50.826;6.896;2022-09-03T14:39:58;4.28;;;2.22;;
72132;SDS011;60008;50.826;6.896;2022-09-03T14:48:35;7.20;;;2.90;;
72132;SDS011;60008;50.826;6.896;2022-09-03T15:13:20;3.65;;;1.90;;
72132;SDS011;60008;50.826;6.896;2022-09-03T15:15:53;3.70;;;2.27;;
72132;SDS011;60008;50.826;6.896;2022-09-03T15:37:27;2.42;;;1.60;;
72132;SDS011;60008;50.826;6.896;2022-09-03T15:40:21;3.80;;;1.83;;
72132;SDS011;60008;50.826;6.896;2022-09-03T15:42:56;2.47;;;1.67;;
72132;SDS011;60008;50.826;6.896;2022-09-03T15:45:34;2.47;;;1.40;;
72132;SDS011;60008;50.826;6.896;2022-09-03T15:53:35;2.75;;;1.67;;
72132;SDS011;60008;50.826;6.896;2022-09-03T15:56:18;2.57;;;1.50;;
72132;SDS011;60008;50.826;6.896;2022-09-03T15:59:24;3.33;;;1.60;;
72132;SDS011;60008;50.826;6.896;2022-09-03T16:02:12;2.50;;;1.70;;
72132;SDS011;60008;50.826;6.896;2022-09-03T16:04:55;5.00;;;1.90;;
72132;SDS011;60008;50.826;6.896;2022-09-03T16:12:56;6.47;;;1.60;;
72132;SDS011;60008;50.826;6.896;2022-09-03T16:15:40;2.83;;;1.70;;
72132;SDS011;60008;50.826;6.896;2022-09-03T16:18:25;3.40;;;2.05;;
72132;SDS011;60008;50.826;6.896;2022-09-03T16:20:54;3.30;;;1.92;;
72132;SDS011;60008;50.826;6.896;2022-09-03T16:23:30;3.50;;;1.80;;
72132;SDS011;60008;50.826;6.896;2022-09-03T16:29:34;2.53;;;1.58;;
72132;SDS011;60008;50.826;6.896;2022-09-03T16:34:41;3.00;;;1.70;;
72132;SDS011;60008;50.826;6.896;2022-09-03T16:37:36;3.67;;;1.70;;
72132;SDS011;60008;50.826;6.896;2022-09-03T16:43:41;3.00;;;1.40;;
72132;SDS011;60008;50.826;6.896;2022-09-03T16:46:17;4.82;;;1.50;;
72132;SDS011;60008;50.826;6.896;2022-09-03T16:59:35;5.05;;;1.38;;
72132;SDS011;60008;50.826;6.896;2022-09-03T17:02:40;2.53;;;1.40;;
72132;SDS011;60008;50.826;6.896;2022-09-03T17:10:48;2.30;;;1.42;;
72132;SDS011;60008;50.826;6.896;2022-09-03T17:16:23;3.40;;;1.30;;
72132;SDS011;60008;50.826;6.896;2022-09-03T17:31:18;2.53;;;1.60;;
72132;SDS011;60008;50.826;6.896;2022-09-03T17:36:36;3.85;;;1.25;;
72132;SDS011;60008;50.826;6.896;2022-09-03T17:42:03;2.03;;;1.20;;
72132;SDS011;60008;50.826;6.896;2022-09-03T17:50:25;4.20;;;2.00;;
72132;SDS011;60008;50.826;6.896;2022-09-03T17:53:00;5.05;;;1.85;;
72132;SDS011;60008;50.826;6.896;2022-09-03T17:55:42;8.32;;;2.20;;
72132;SDS011;60008;50.826;6.896;2022-09-03T17:58:18;4.03;;;1.95;;
72132;SDS011;60008;50.826;6.896;2022-09-03T18:11:46;5.05;;;2.38;;
72132;SDS011;60008;50.826;6.896;2022-09-03T18:14:23;3.30;;;1.83;;
72132;SDS011;60008;50.826;6.896;2022-09-03T18:22:19;3.53;;;1.70;;
72132;SDS011;60008;50.826;6.896;2022-09-03T18:25:10;4.78;;;1.80;;
72132;SDS011;60008;50.826;6.896;2022-09-03T18:27:59;3.37;;;1.90;;
72132;SDS011;60008;50.826;6.896;2022-09-03T18:30:51;2.90;;;1.70;;
72132;SDS011;60008;50.826;6.896;2022-09-03T18:33:36;3.35;;;1.70;;
72132;SDS011;60008;50.826;6.896;2022-09-03T18:36:21;3.15;;;1.67;;
72132;SDS011;60008;50.826;6.896;2022-09-03T18:39:11;2.88;;;1.70;;
72132;SDS011;60008;50.826;6.896;2022-09-03T18:42:04;5.57;;;1.90;;
72132;SDS011;60008;50.826;6.896;2022-09-03T18:51:53;3.97;;;2.03;;
72132;SDS011;60008;50.826;6.896;2022-09-03T18:58:18;5.30;;;2.30;;
72132;SDS011;60008;50.826;6.896;2022-09-03T19:01:33;4.03;;;2.22;;
72132;SDS011;60008;50.826;6.896;2022-09-03T19:04:35;4.13;;;2.25;;
72132;SDS011;60008;50.826;6.896;2022-09-03T19:07:35;3.78;;;2.13;;
72132;SDS011;60008;50.826;6.896;2022-09-03T19:10:33;4.63;;;2.80;;
72132;SDS011;60008;50.826;6.896;2022-09-03T19:13:34;4.63;;;2.13;;
72132;SDS011;60008;50.826;6.896;2022-09-03T19:22:40;6.10;;;2.10;;
72132;SDS011;60008;50.826;6.896;2022-09-03T19:25:27;5.35;;;2.10;;
72132;SDS011;60008;50.826;6.896;2022-09-03T19:28:20;3.50;;;2.13;;
72132;SDS011;60008;50.826;6.896;2022-09-03T19:37:40;5.05;;;2.15;;
72132;SDS011;60008;50.826;6.896;2022-09-03T19:40:50;3.88;;;2.20;;
72132;SDS011;60008;50.826;6.896;2022-09-03T19:49:40;6.63;;;2.67;;
72132;SDS011;60008;50.826;6.896;2022-09-03T19:52:38;6.60;;;2.35;;
72132;SDS011;60008;50.826;6.896;2022-09-03T19:55:34;6.82;;;2.17;;
72132;SDS011;60008;50.826;6.896;2022-09-03T19:58:23;5.63;;;2.23;;
72132;SDS011;60008;50.826;6.896;2022-09-03T20:01:11;4.10;;;2.30;;
72132;SDS011;60008;50.826;6.896;2022-09-03T20:04:02;3.58;;;2.20;;
72132;SDS011;60008;50.826;6.896;2022-09-03T20:06:56;4.20;;;2.10;;
72132;SDS011;60008;50.826;6.896;2022-09-03T20:09:43;5.13;;;2.30;;
72132;SDS011;60008;50.826;6.896;2022-09-03T20:12:34;5.30;;;2.43;;
72132;SDS011;60008;50.826;6.896;2022-09-03T20:15:05;5.45;;;2.55;;
72132;SDS011;60008;50.826;6.896;2022-09-03T20:20:50;6.90;;;2.70;;
72132;SDS011;60008;50.826;6.896;2022-09-03T20:23:33;7.25;;;2.50;;
72132;SDS011;60008;50.826;6.896;2022-09-03T20:31:51;4.78;;;2.70;;
72132;SDS011;60008;50.826;6.896;2022-09-03T20:36:54;6.72;;;2.90;;
72132;SDS011;60008;50.826;6.896;2022-09-03T20:39:32;5.53;;;3.20;;
72132;SDS011;60008;50.826;6.896;2022-09-03T20:50:34;4.80;;;2.67;;
72132;SDS011;60008;50.826;6.896;2022-09-03T21:01:50;4.88;;;3.13;;
72132;SDS011;60008;50.826;6.896;2022-09-03T21:04:30;5.28;;;3.13;;
72132;SDS011;60008;50.826;6.896;2022-09-03T21:07:11;5.90;;;3.23;;
72132;SDS011;60008;50.826;6.896;2022-09-03T21:09:52;6.97;;;3.28;;
72132;SDS011;60008;50.826;6.896;2022-09-03T21:12:27;6.63;;;3.50;;
72132;SDS011;60008;50.826;6.896;2022-09-03T21:14:58;4.97;;;3.20;;
72132;SDS011;60008;50.826;6.896;2022-09-03T21:20:35;11.23;;;7.30;;
72132;SDS011;60008;50.826;6.896;2022-09-03T21:23:20;5.75;;;3.05;;
72132;SDS011;60008;50.826;6.896;2022-09-03T21:26:00;7.60;;;3.55;;
72132;SDS011;60008;50.826;6.896;2022-09-03T21:28:33;5.72;;;3.28;;
72132;SDS011;60008;50.826;6.896;2022-09-03T21:31:14;7.32;;;3.90;;
72132;SDS011;60008;50.826;6.896;2022-09-03T21:33:47;6.07;;;3.97;;
72132;SDS011;60008;50.826;6.896;2022-09-03T21:36:30;4.97;;;3.50;;
72132;SDS011;60008;50.826;6.896;2022-09-03T21:39:12;8.05;;;3.70;;
72132;SDS011;60008;50.826;6.896;2022-09-03T21:41:43;7.82;;;3.92;;
72132;SDS011;60008;50.826;6.896;2022-09-03T21:47:15;5.83;;;3.90;;
72132;SDS011;60008;50.826;6.896;2022-09-03T21:49:51;5.75;;;4.05;;
72132;SDS011;60008;50.826;6.896;2022-09-03T21:52:32;7.10;;;4.00;;
72132;SDS011;60008;50.826;6.896;2022-09-03T21:55:21;6.30;;;3.83;;